Etowah, TN

1:24 PM EST on December 06, 2016 (GMT -0500)
Etowah Utilities | | Change Station

Elev 791 ft 35.32 °N, 84.53 °W | Updated 2 seconds ago

Overcast
Overcast
58.8 °F
Feels Like 58.8 °F
N
3.4
Wind Variable Wind from WSW
Gusts 4.9 mph

Today
High -- | Low -- °F
--% Chance of Precip.
Yesterday
High -- | Low -- °F
Precip. -- in
Pressure 29.72 in
Visibility 10.0 miles
Clouds Scattered Clouds 900 ft
Mostly Cloudy 1400 ft
Overcast 2300 ft
Dew Point 56 °F
Humidity 90%
Rainfall 0.83 in
Snow Depth Not available.
7:33 AM 5:25 PM
Waxing Crescent, 44% visible
METAR KMMI 061755Z AUTO 24005KT 10SM SCT009 BKN014 OVC023 13/12 A2972 RMK
Pressure 29.72 in
Visibility 10.0 miles
Clouds Scattered Clouds 900 ft
Mostly Cloudy 1400 ft
Overcast 2300 ft
Dew Point 56 °F
Humidity 90%
Rainfall 0.83 in
Snow Depth Not available.
7:33 AM 5:25 PM
Waxing Crescent, 44% visible
METAR KMMI 061755Z AUTO 24005KT 10SM SCT009 BKN014 OVC023 13/12 A2972 RMK

10-Day Weather Forecast

Almanac

Astronomy

Dec. 06, 2016 Rise Set
Actual Time
Civil Twilight
Nautical Twilight
Astronomical Twilight
Moon
Length of Visible Light
Length of Day
Tomorrow will be .
, % of the Moon is Illuminated

Today's Extremes

State Highs State Lows

Community

WunderPhotos

Upload Photos

1,955,999 photos uploaded!

WunderBlog® & News

Nearby

Air Quality

  Air Quality AQ Index Pollutant
Not available.

Snow Depth

Station Depth Elevation

Earthquake Activity

City Distance Mag. Time & Date
Minimum magnitude displayed is 2.5.

Coastal Water Temperatures

Place Temperature

Stations

Nearby Weather Stations

Station Location Temp. Windchill Dew Point Humidity Wind Precip. Elev Updated Type
                   

Watches & Warnings

There are currently no watches in effect.